Petrovskij Zavod, Russia
Current Conditions -  °F | °C
As of 5:00 AM on Sunday 21 Dec 2014 (Local Time) from UIUU Reporting Station
Snow Showers Snow Showers  
Wind Chill: 13°   Ceiling: 2400
Heat Index: 19°   Visibility: 1.3mi
Dew Point: 18°   Wind: 4mph
Humidity: 93%   Direction: 120°ESE
Pressure: 30.15"   Gusts: NA
Location:  51.32°N, 108.87°E
Report Text: UIUU 202000Z 12002MPS 2100 -SHSN OVC024CB M07/M08 Q1021 NOSIGRMK QFE721/0962 26497010
Loading
Personal Weather Stations






























Interactive Weather Map New forecast layout! Learn more

10-Day Weather Forecast

Advertisements
Track Severe Weather on mobile